createdAt,value
2023-05-14T00:00:34.787Z,9.51
2023-05-14T00:01:34.746Z,9.53
2023-05-14T00:02:34.826Z,9.54
2023-05-14T00:03:34.911Z,9.57
2023-05-14T00:04:34.741Z,9.56
2023-05-14T00:05:34.746Z,9.56
2023-05-14T00:06:34.665Z,9.54
2023-05-14T00:07:34.597Z,9.54
2023-05-14T00:08:34.645Z,9.53
2023-05-14T00:09:34.566Z,9.50
2023-05-14T00:10:34.620Z,9.54
2023-05-14T00:11:34.624Z,9.54
2023-05-14T00:12:34.583Z,9.48
2023-05-14T00:13:34.555Z,9.46
2023-05-14T00:14:34.549Z,9.42
2023-05-14T00:15:34.721Z,9.39
2023-05-14T00:16:34.508Z,9.38
2023-05-14T00:17:34.541Z,9.33
2023-05-14T00:18:34.545Z,9.33
2023-05-14T00:19:34.511Z,9.29
2023-05-14T00:20:34.513Z,9.26
2023-05-14T00:21:34.492Z,9.21
2023-05-14T00:22:34.462Z,9.17
2023-05-14T00:23:34.473Z,9.13
2023-05-14T00:24:34.405Z,9.10
2023-05-14T00:25:34.429Z,9.08
2023-05-14T00:26:34.457Z,9.11
2023-05-14T00:27:34.417Z,9.11
2023-05-14T00:28:34.423Z,9.13
2023-05-14T00:29:34.459Z,9.13
2023-05-14T00:30:34.397Z,9.13
2023-05-14T00:31:34.382Z,9.14
2023-05-14T00:32:34.349Z,9.14
2023-05-14T00:33:34.380Z,9.15
2023-05-14T00:34:34.373Z,9.18
2023-05-14T00:35:34.326Z,9.18
2023-05-14T00:36:34.326Z,9.18
2023-05-14T00:37:34.274Z,9.14
2023-05-14T00:38:34.253Z,9.11
2023-05-14T00:39:34.265Z,9.10
2023-05-14T00:40:34.315Z,9.10
2023-05-14T00:41:34.293Z,9.05
2023-05-14T00:42:34.209Z,9.11
2023-05-14T00:43:34.192Z,9.13
2023-05-14T00:44:34.270Z,9.24
2023-05-14T00:45:34.292Z,9.43
2023-05-14T00:46:34.279Z,9.57
2023-05-14T00:47:34.231Z,9.69
2023-05-14T00:48:34.166Z,9.76
2023-05-14T00:49:34.190Z,9.78
2023-05-14T00:50:34.251Z,9.81
2023-05-14T00:51:34.140Z,9.83
2023-05-14T00:52:34.133Z,9.86
2023-05-14T00:53:34.120Z,9.89
2023-05-14T00:54:34.092Z,9.89
2023-05-14T00:55:34.162Z,9.86
2023-05-14T00:56:34.134Z,9.84
2023-05-14T00:57:34.246Z,9.78
2023-05-14T00:58:34.090Z,9.74
2023-05-14T00:59:34.334Z,9.72
2023-05-14T01:00:34.126Z,9.68
2023-05-14T01:01:34.270Z,9.61
2023-05-14T01:02:34.125Z,9.58
2023-05-14T01:03:34.287Z,9.56
2023-05-14T01:04:33.981Z,9.50
2023-05-14T01:05:34.084Z,9.43
2023-05-14T01:06:33.985Z,9.33
2023-05-14T01:07:33.965Z,9.28
2023-05-14T01:08:33.988Z,9.23
2023-05-14T01:09:33.949Z,9.20
2023-05-14T01:10:34.030Z,9.14
2023-05-14T01:11:33.973Z,9.11
2023-05-14T01:12:34.000Z,9.05
2023-05-14T01:13:33.953Z,9.02
2023-05-14T01:14:33.991Z,8.94
2023-05-14T01:15:33.893Z,8.92
2023-05-14T01:16:33.885Z,8.89
2023-05-14T01:17:33.942Z,8.84
2023-05-14T01:18:33.918Z,8.83
2023-05-14T01:19:33.837Z,8.80
2023-05-14T01:20:33.814Z,8.77
2023-05-14T01:21:33.863Z,8.77
2023-05-14T01:22:33.831Z,8.71
2023-05-14T01:23:33.846Z,8.70
2023-05-14T01:24:33.779Z,8.68
2023-05-14T01:25:33.778Z,8.63
2023-05-14T01:26:33.780Z,8.62
2023-05-14T01:27:33.784Z,8.56
2023-05-14T01:28:33.781Z,8.53
2023-05-14T01:29:33.716Z,8.47
2023-05-14T01:30:33.725Z,8.43
2023-05-14T01:31:33.750Z,8.43
2023-05-14T01:32:33.748Z,8.40
2023-05-14T01:33:33.695Z,8.40
2023-05-14T01:34:33.689Z,8.38
2023-05-14T01:35:33.727Z,8.40
2023-05-14T01:36:33.657Z,8.40
2023-05-14T01:37:33.646Z,8.37
2023-05-14T01:38:33.645Z,8.38
2023-05-14T01:39:33.689Z,8.38
2023-05-14T01:40:33.634Z,8.38
2023-05-14T01:41:33.608Z,8.40
2023-05-14T01:42:33.598Z,8.38
2023-05-14T01:43:33.690Z,8.38
2023-05-14T01:44:33.571Z,8.38
2023-05-14T01:45:33.532Z,8.41
2023-05-14T01:46:33.750Z,8.41
2023-05-14T01:47:33.557Z,8.43
2023-05-14T01:48:33.494Z,8.41
2023-05-14T01:49:33.552Z,8.41
2023-05-14T01:50:33.497Z,8.43
2023-05-14T01:51:33.501Z,8.40
2023-05-14T01:52:33.434Z,8.38
2023-05-14T01:57:10.554Z,8.36
2023-05-14T01:58:10.551Z,8.30
2023-05-14T01:59:10.521Z,8.34
2023-05-14T02:00:10.513Z,8.36
2023-05-14T02:01:10.552Z,8.38
2023-05-14T02:02:10.478Z,8.36
2023-05-14T02:03:10.477Z,8.37
2023-05-14T02:04:10.500Z,8.38
2023-05-14T02:05:10.421Z,8.40
2023-05-14T02:06:10.418Z,8.43
2023-05-14T02:07:10.401Z,8.45
2023-05-14T02:08:10.381Z,8.53
2023-05-14T02:09:10.394Z,8.55
2023-05-14T02:10:10.386Z,8.58
2023-05-14T02:11:10.366Z,8.58
2023-05-14T02:12:10.344Z,8.58
2023-05-14T02:13:10.401Z,8.56
2023-05-14T02:14:10.336Z,8.56
2023-05-14T02:15:10.312Z,8.58
2023-05-14T02:16:10.384Z,8.55
2023-05-14T02:17:10.284Z,8.50
2023-05-14T02:18:10.330Z,8.47
2023-05-14T02:19:10.372Z,8.43
2023-05-14T02:20:10.296Z,8.40
2023-05-14T02:21:10.256Z,8.37
2023-05-14T02:22:10.247Z,8.33
2023-05-14T02:23:10.232Z,8.29
2023-05-14T02:24:10.241Z,8.26
2023-05-14T02:25:10.249Z,8.25
2023-05-14T02:26:10.251Z,8.23
2023-05-14T02:27:10.213Z,8.20
2023-05-14T02:28:10.246Z,8.20
2023-05-14T02:29:10.216Z,8.19
2023-05-14T02:30:10.194Z,8.15
2023-05-14T02:31:10.158Z,8.12
2023-05-14T02:32:10.186Z,8.08
2023-05-14T02:33:10.214Z,8.10
2023-05-14T02:34:10.124Z,8.11
2023-05-14T02:35:10.091Z,8.16
2023-05-14T02:36:10.100Z,8.18
2023-05-14T02:37:10.097Z,8.15
2023-05-14T02:38:10.131Z,8.18
2023-05-14T02:39:10.066Z,8.16
2023-05-14T02:40:10.125Z,8.19
2023-05-14T02:41:10.046Z,8.20
2023-05-14T02:42:10.030Z,8.19
2023-05-14T02:43:10.014Z,8.16
2023-05-14T02:44:10.044Z,8.16
2023-05-14T02:45:09.995Z,8.15
2023-05-14T02:46:10.009Z,8.11
2023-05-14T02:47:10.028Z,8.11
2023-05-14T02:48:10.022Z,8.08
2023-05-14T02:49:09.993Z,8.08
2023-05-14T02:50:09.987Z,8.08
2023-05-14T02:51:09.961Z,8.07
2023-05-14T02:52:09.948Z,8.05
2023-05-14T02:53:09.906Z,8.04
2023-05-14T02:54:09.939Z,8.04
2023-05-14T02:55:09.938Z,8.04
2023-05-14T02:56:09.874Z,8.02
2023-05-14T02:57:09.883Z,8.00
2023-05-14T02:58:09.895Z,8.00
2023-05-14T02:59:09.962Z,7.98
2023-05-14T03:00:09.888Z,7.98
2023-05-14T03:01:09.853Z,7.98
2023-05-14T03:02:09.898Z,7.98
2023-05-14T03:03:09.865Z,7.93
2023-05-14T03:04:09.889Z,7.92
2023-05-14T03:05:09.799Z,7.90
2023-05-14T03:06:09.820Z,7.92
2023-05-14T03:07:09.761Z,7.95
2023-05-14T03:08:09.796Z,7.93
2023-05-14T03:09:09.751Z,7.92
2023-05-14T03:10:09.760Z,7.90
2023-05-14T03:11:09.714Z,7.93
2023-05-14T03:12:09.715Z,7.90
2023-05-14T03:13:09.719Z,7.89
2023-05-14T03:14:09.728Z,7.83
2023-05-14T03:15:09.681Z,7.82
2023-05-14T03:16:09.704Z,7.80
2023-05-14T03:17:09.721Z,7.79
2023-05-14T03:18:09.655Z,7.75
2023-05-14T03:19:09.751Z,7.74
2023-05-14T03:20:09.608Z,7.71
2023-05-14T03:21:09.613Z,7.72
2023-05-14T03:22:09.633Z,7.71
2023-05-14T03:23:09.617Z,7.68
2023-05-14T03:24:09.593Z,7.61
2023-05-14T03:25:09.592Z,7.60
2023-05-14T03:26:09.578Z,7.53
2023-05-14T03:27:09.550Z,7.52
2023-05-14T03:28:09.542Z,7.50
2023-05-14T03:29:09.511Z,7.50
2023-05-14T03:30:09.716Z,7.50
2023-05-14T03:31:09.545Z,7.50
2023-05-14T03:32:09.536Z,7.55
2023-05-14T03:33:09.491Z,7.55
2023-05-14T03:34:09.474Z,7.52
2023-05-14T03:35:09.449Z,7.52
2023-05-14T03:36:09.438Z,7.49
2023-05-14T03:37:09.483Z,7.48
2023-05-14T03:38:09.460Z,7.49
2023-05-14T03:39:09.432Z,7.48
2023-05-14T03:40:09.449Z,7.48
2023-05-14T03:41:09.474Z,7.43
2023-05-14T03:42:09.375Z,7.45
2023-05-14T03:43:09.434Z,7.43
2023-05-14T03:44:09.406Z,7.40
2023-05-14T03:45:09.357Z,7.40
2023-05-14T03:46:09.362Z,7.35
2023-05-14T03:47:09.349Z,7.34
2023-05-14T03:48:09.465Z,7.32
2023-05-14T03:49:09.334Z,7.34
2023-05-14T03:50:09.331Z,7.32
2023-05-14T03:51:09.291Z,7.34
2023-05-14T03:52:09.305Z,7.35
2023-05-14T03:53:09.302Z,7.37
2023-05-14T03:54:09.269Z,7.40
2023-05-14T03:55:09.262Z,7.40
2023-05-14T03:56:09.250Z,7.43
2023-05-14T03:57:09.242Z,7.45
2023-05-14T03:58:09.215Z,7.45
2023-05-14T03:59:09.242Z,7.42
2023-05-14T04:00:09.221Z,7.40
2023-05-14T04:01:09.839Z,7.42
2023-05-14T04:02:09.170Z,7.39
2023-05-14T04:03:09.247Z,7.39
2023-05-14T04:04:09.277Z,7.37
2023-05-14T04:05:09.167Z,7.34
2023-05-14T04:06:09.128Z,7.35
2023-05-14T04:07:09.170Z,7.37
2023-05-14T04:08:09.114Z,7.34
2023-05-14T04:09:09.158Z,7.37
2023-05-14T04:10:09.106Z,7.37
2023-05-14T04:11:09.085Z,7.40
2023-05-14T04:12:09.090Z,7.42
2023-05-14T04:13:09.065Z,7.48
2023-05-14T04:14:09.046Z,7.50
2023-05-14T04:15:09.036Z,7.57
2023-05-14T04:16:09.062Z,7.67
2023-05-14T04:17:09.017Z,7.72
2023-05-14T04:18:09.046Z,7.75
2023-05-14T04:19:09.093Z,7.79
2023-05-14T04:20:08.998Z,7.80
2023-05-14T04:21:09.012Z,7.79
2023-05-14T04:22:08.958Z,7.77
2023-05-14T04:23:08.977Z,7.79
2023-05-14T04:24:08.911Z,7.77
2023-05-14T04:25:08.961Z,7.75
2023-05-14T04:26:08.923Z,7.77
2023-05-14T04:27:08.934Z,7.75
2023-05-14T04:28:08.893Z,7.79
2023-05-14T04:29:08.942Z,7.77
2023-05-14T04:30:08.936Z,7.77
2023-05-14T04:31:08.887Z,7.80
2023-05-14T04:32:11.078Z,7.80
2023-05-14T04:33:08.927Z,7.83
2023-05-14T04:34:08.838Z,7.83
2023-05-14T04:35:08.848Z,7.83
2023-05-14T04:36:08.826Z,7.85
2023-05-14T04:37:08.836Z,7.86
2023-05-14T04:38:08.782Z,7.87
2023-05-14T04:39:09.296Z,7.92
2023-05-14T04:40:08.792Z,7.93
2023-05-14T04:41:08.837Z,7.95
2023-05-14T04:42:08.770Z,7.98
2023-05-14T04:43:08.805Z,8.01
2023-05-14T04:44:08.706Z,8.02
2023-05-14T04:45:08.734Z,8.08
2023-05-14T04:46:08.756Z,8.11
2023-05-14T04:47:08.711Z,8.18
2023-05-14T04:48:08.890Z,8.22
2023-05-14T04:49:08.670Z,8.28
2023-05-14T04:50:08.643Z,8.33
2023-05-14T04:51:08.761Z,8.37
2023-05-14T04:52:08.633Z,8.41
2023-05-14T04:53:08.798Z,8.47
2023-05-14T04:54:08.954Z,8.52
2023-05-14T04:55:08.672Z,8.55
2023-05-14T04:56:08.629Z,8.63
2023-05-14T04:57:08.605Z,8.68
2023-05-14T04:58:08.571Z,8.77
2023-05-14T04:59:08.611Z,8.86
2023-05-14T05:00:08.673Z,8.95
2023-05-14T05:01:08.664Z,9.04
2023-05-14T05:02:08.670Z,9.15
2023-05-14T05:03:08.694Z,9.24
2023-05-14T05:04:08.604Z,9.33
2023-05-14T05:05:08.803Z,9.40
2023-05-14T05:06:08.520Z,9.50
2023-05-14T05:07:08.531Z,9.56
2023-05-14T05:08:08.478Z,9.64
2023-05-14T05:09:08.520Z,9.72
2023-05-14T05:10:08.569Z,9.81
2023-05-14T05:11:08.486Z,9.87
2023-05-14T05:12:08.487Z,9.96
2023-05-14T05:13:08.447Z,10.01
2023-05-14T05:14:08.472Z,10.05
2023-05-14T05:15:08.407Z,10.12
2023-05-14T05:16:08.636Z,10.18
2023-05-14T05:17:08.404Z,10.25
2023-05-14T05:18:08.415Z,10.30
2023-05-14T05:19:08.464Z,10.38
2023-05-14T05:20:08.384Z,10.42
2023-05-14T05:21:08.349Z,10.47
2023-05-14T05:22:08.411Z,10.53
2023-05-14T05:23:08.342Z,10.61
2023-05-14T05:24:08.315Z,10.67
2023-05-14T05:25:08.317Z,10.74
2023-05-14T05:26:08.305Z,10.79
2023-05-14T05:27:08.317Z,10.86
2023-05-14T05:28:08.409Z,10.89
2023-05-14T05:29:08.248Z,10.91
2023-05-14T05:30:08.220Z,10.96
2023-05-14T05:31:08.400Z,11.03
2023-05-14T05:32:08.225Z,11.09
2023-05-14T05:33:08.251Z,11.17
2023-05-14T05:34:08.438Z,11.24
2023-05-14T05:35:08.230Z,11.33
2023-05-14T05:36:08.209Z,11.40
2023-05-14T05:37:08.221Z,11.51
2023-05-14T05:38:08.150Z,11.61
2023-05-14T05:39:08.166Z,11.73
2023-05-14T05:40:08.137Z,11.79
2023-05-14T05:41:08.170Z,11.85
2023-05-14T05:42:08.117Z,11.96
2023-05-14T05:43:08.127Z,12.05
2023-05-14T05:44:08.127Z,12.13
2023-05-14T05:45:08.106Z,12.21
2023-05-14T05:46:08.122Z,12.32
2023-05-14T05:47:08.110Z,12.39
2023-05-14T05:48:08.108Z,12.49
2023-05-14T05:49:08.056Z,12.56
2023-05-14T05:50:08.033Z,12.65
2023-05-14T05:51:08.034Z,12.71
2023-05-14T05:52:07.978Z,12.74
2023-05-14T05:53:08.072Z,12.79
2023-05-14T05:54:08.058Z,12.86
2023-05-14T05:55:07.986Z,12.90
2023-05-14T05:56:07.992Z,12.90
2023-05-14T05:57:08.000Z,12.96
2023-05-14T05:58:07.969Z,13.05
2023-05-14T05:59:07.965Z,13.15
2023-05-14T06:00:07.944Z,13.20
2023-05-14T06:01:07.951Z,13.28
2023-05-14T06:02:07.992Z,13.36
2023-05-14T06:03:07.919Z,13.42
2023-05-14T06:04:07.895Z,13.48
2023-05-14T06:05:07.963Z,13.55
2023-05-14T06:06:07.875Z,13.66
2023-05-14T06:07:07.854Z,13.75
2023-05-14T06:08:07.842Z,13.84
2023-05-14T06:09:07.868Z,13.96
2023-05-14T06:10:07.872Z,14.07
2023-05-14T06:11:07.792Z,14.24
2023-05-14T06:12:07.849Z,14.40
2023-05-14T06:13:07.855Z,14.51
2023-05-14T06:14:07.805Z,14.61
2023-05-14T06:15:07.782Z,14.77
2023-05-14T06:16:07.765Z,14.83
2023-05-14T06:17:07.794Z,14.92
2023-05-14T06:18:07.750Z,15.02
2023-05-14T06:19:07.867Z,15.17
2023-05-14T06:20:07.743Z,15.28
2023-05-14T06:21:07.717Z,15.38
2023-05-14T06:22:07.684Z,15.44
2023-05-14T06:23:07.692Z,15.49
2023-05-14T06:24:07.686Z,15.54
2023-05-14T06:25:07.784Z,15.60
2023-05-14T06:26:07.654Z,15.72
2023-05-14T06:27:07.709Z,15.80
2023-05-14T06:28:07.658Z,15.87
2023-05-14T06:29:07.713Z,15.96
2023-05-14T06:30:07.628Z,16.04
2023-05-14T06:31:07.604Z,16.14
2023-05-14T06:32:07.618Z,16.25
2023-05-14T06:33:07.575Z,16.35
2023-05-14T06:34:07.554Z,16.45
2023-05-14T06:35:07.929Z,16.52
2023-05-14T06:36:07.570Z,16.63
2023-05-14T06:37:07.597Z,16.64
2023-05-14T06:38:07.517Z,16.53
2023-05-14T06:39:07.483Z,16.33
2023-05-14T06:40:07.505Z,16.21
2023-05-14T06:41:07.487Z,16.28
2023-05-14T06:42:07.516Z,16.34
2023-05-14T06:43:07.503Z,16.35
2023-05-14T06:44:07.796Z,16.34
2023-05-14T06:45:07.469Z,16.31
2023-05-14T06:46:07.394Z,16.38
2023-05-14T06:47:07.382Z,16.42
2023-05-14T06:48:07.509Z,16.48
2023-05-14T06:49:07.439Z,16.50
2023-05-14T06:50:09.527Z,16.58
2023-05-14T06:51:07.818Z,16.70
2023-05-14T06:52:07.377Z,16.83
2023-05-14T06:53:07.340Z,16.88
2023-05-14T06:54:07.369Z,16.97
2023-05-14T06:55:07.341Z,17.04
2023-05-14T06:56:07.316Z,17.11
2023-05-14T06:57:07.364Z,17.03
2023-05-14T06:58:07.283Z,17.04
2023-05-14T06:59:07.296Z,17.01
2023-05-14T07:00:07.404Z,17.03
2023-05-14T07:01:07.357Z,17.01
2023-05-14T07:02:07.740Z,17.03
2023-05-14T07:03:07.859Z,17.06
2023-05-14T07:04:07.525Z,17.11
2023-05-14T07:05:07.450Z,17.16
2023-05-14T07:06:07.578Z,17.23
2023-05-14T07:07:07.335Z,17.34
2023-05-14T07:08:07.331Z,17.36
2023-05-14T07:09:07.196Z,17.44
2023-05-14T07:10:07.223Z,17.51
2023-05-14T07:11:07.229Z,17.49
2023-05-14T07:12:07.153Z,17.51
2023-05-14T07:13:07.148Z,17.49
2023-05-14T07:14:07.215Z,17.56
2023-05-14T07:15:07.124Z,17.58
2023-05-14T07:16:07.204Z,17.59
2023-05-14T07:17:07.123Z,17.62
2023-05-14T07:18:07.120Z,17.62
2023-05-14T07:19:07.214Z,17.56
2023-05-14T07:20:07.070Z,17.56
2023-05-14T07:21:07.091Z,17.51
2023-05-14T07:22:07.057Z,17.48
2023-05-14T07:23:07.019Z,17.44
2023-05-14T07:24:07.011Z,17.44
2023-05-14T07:25:07.037Z,17.46
2023-05-14T07:26:06.979Z,17.46
2023-05-14T07:27:06.994Z,17.48
2023-05-14T07:28:06.986Z,17.43
2023-05-14T07:29:06.947Z,17.38
2023-05-14T07:30:06.967Z,17.33
2023-05-14T07:31:06.975Z,17.31
2023-05-14T07:32:06.911Z,17.30
2023-05-14T07:33:07.006Z,17.33
2023-05-14T07:34:06.887Z,17.37
2023-05-14T07:35:06.915Z,17.38
2023-05-14T07:36:06.896Z,17.40
2023-05-14T07:37:07.116Z,17.44
2023-05-14T07:38:06.900Z,17.51
2023-05-14T07:39:06.877Z,17.55
2023-05-14T07:40:06.818Z,17.63
2023-05-14T07:41:06.838Z,17.70
2023-05-14T07:42:06.822Z,17.74
2023-05-14T07:43:06.825Z,17.78
2023-05-14T07:44:06.793Z,17.82
2023-05-14T07:45:06.798Z,17.95
2023-05-14T07:46:06.784Z,17.97
2023-05-14T07:47:06.781Z,18.05
2023-05-14T07:48:06.876Z,18.14
2023-05-14T07:49:06.745Z,18.23
2023-05-14T07:50:06.739Z,18.30
2023-05-14T07:51:06.760Z,18.37
2023-05-14T07:52:06.699Z,18.48
2023-05-14T07:53:06.717Z,18.54
2023-05-14T07:54:15.500Z,18.60
2023-05-14T07:55:06.656Z,18.63
2023-05-14T07:56:06.662Z,18.67
2023-05-14T07:57:06.636Z,18.67
2023-05-14T07:58:06.654Z,18.70
2023-05-14T07:59:06.616Z,18.75
2023-05-14T08:00:06.599Z,18.78
2023-05-14T08:01:06.592Z,18.81
2023-05-14T08:02:06.770Z,18.78
2023-05-14T08:03:06.853Z,18.76
2023-05-14T08:04:06.698Z,18.85
2023-05-14T08:05:06.554Z,18.94
2023-05-14T08:06:06.654Z,19.00
2023-05-14T08:07:06.552Z,19.08
2023-05-14T08:08:06.622Z,19.18
2023-05-14T08:09:06.503Z,19.28
2023-05-14T08:10:06.556Z,19.33
2023-05-14T08:11:06.544Z,19.39
2023-05-14T08:12:06.502Z,19.37
2023-05-14T08:13:06.484Z,19.43
2023-05-14T08:14:06.487Z,19.44
2023-05-14T08:15:06.442Z,19.44
2023-05-14T08:16:06.483Z,19.48
2023-05-14T08:17:06.533Z,19.51
2023-05-14T08:18:06.462Z,19.58
2023-05-14T08:19:06.455Z,19.63
2023-05-14T08:20:06.421Z,19.76
2023-05-14T08:21:06.382Z,19.80
2023-05-14T08:22:06.376Z,19.88
2023-05-14T08:23:06.390Z,19.88
2023-05-14T08:24:06.366Z,19.87
2023-05-14T08:25:06.360Z,19.92
2023-05-14T08:26:06.354Z,19.92
2023-05-14T08:27:06.316Z,19.94
2023-05-14T08:28:06.345Z,19.98
2023-05-14T08:29:07.141Z,20.03
2023-05-14T08:30:06.305Z,20.08
2023-05-14T08:31:06.509Z,20.13
2023-05-14T08:32:19.298Z,20.13
2023-05-14T08:33:07.347Z,20.18
2023-05-14T08:34:06.258Z,20.21
2023-05-14T08:35:06.257Z,20.24
2023-05-14T08:36:06.243Z,20.28
2023-05-14T08:37:06.245Z,20.33
2023-05-14T08:38:06.210Z,20.36
2023-05-14T08:39:06.655Z,20.43
2023-05-14T08:40:06.184Z,20.52
2023-05-14T08:41:06.204Z,20.52
2023-05-14T08:42:06.161Z,20.62
2023-05-14T08:43:06.173Z,20.70
2023-05-14T08:44:06.218Z,20.76
2023-05-14T08:45:06.117Z,20.80
2023-05-14T08:46:06.129Z,20.77
2023-05-14T08:47:06.247Z,20.80
2023-05-14T08:48:06.429Z,20.87
2023-05-14T08:49:06.118Z,20.85
2023-05-14T08:50:06.094Z,20.88
2023-05-14T08:51:06.050Z,20.84
2023-05-14T08:52:06.143Z,20.87
2023-05-14T08:53:06.053Z,20.87
2023-05-14T08:54:06.092Z,20.87
2023-05-14T08:55:06.088Z,20.87
2023-05-14T08:56:06.011Z,20.91
2023-05-14T08:57:06.133Z,20.92
2023-05-14T08:58:05.993Z,20.97
2023-05-14T08:59:06.151Z,20.87
2023-05-14T09:00:05.983Z,20.91
2023-05-14T09:01:05.953Z,20.94
2023-05-14T09:02:05.990Z,20.97
2023-05-14T09:03:05.982Z,21.01
2023-05-14T09:04:05.964Z,21.13
2023-05-14T09:05:05.906Z,21.17
2023-05-14T09:06:05.884Z,21.17
2023-05-14T09:07:05.886Z,21.22
2023-05-14T09:08:05.877Z,21.21
2023-05-14T09:09:05.897Z,21.24
2023-05-14T09:10:05.935Z,21.21
2023-05-14T09:11:05.896Z,21.27
2023-05-14T09:12:05.876Z,21.28
2023-05-14T09:13:05.837Z,21.32
2023-05-14T09:14:05.824Z,21.44
2023-05-14T09:15:05.805Z,21.54
2023-05-14T09:16:05.907Z,21.61
2023-05-14T09:17:05.785Z,21.64
2023-05-14T09:18:05.781Z,21.64
2023-05-14T09:19:05.893Z,21.61
2023-05-14T09:20:05.760Z,21.58
2023-05-14T09:21:05.723Z,21.61
2023-05-14T09:22:05.795Z,21.67
2023-05-14T09:23:05.786Z,21.69
2023-05-14T09:24:05.707Z,21.67
2023-05-14T09:25:05.701Z,21.62
2023-05-14T09:26:05.696Z,21.50
2023-05-14T09:27:05.675Z,21.50
2023-05-14T09:28:05.667Z,21.44
2023-05-14T09:29:05.641Z,21.44
2023-05-14T09:30:05.708Z,21.31
2023-05-14T09:31:05.696Z,21.09
2023-05-14T09:32:05.898Z,20.97
2023-05-14T09:33:05.707Z,20.94
2023-05-14T09:34:05.596Z,20.88
2023-05-14T09:35:05.626Z,20.91
2023-05-14T09:36:05.712Z,21.10
2023-05-14T09:37:05.549Z,21.31
2023-05-14T09:38:05.696Z,21.44
2023-05-14T09:39:05.528Z,21.25
2023-05-14T09:40:05.609Z,21.29
2023-05-14T09:41:06.289Z,21.40
2023-05-14T09:42:05.659Z,21.53
2023-05-14T09:43:05.531Z,21.52
2023-05-14T09:44:06.737Z,21.40
2023-05-14T09:45:05.498Z,21.49
2023-05-14T09:46:05.478Z,21.50
2023-05-14T09:47:05.610Z,21.52
2023-05-14T09:48:05.585Z,21.59
2023-05-14T09:49:05.432Z,21.84
2023-05-14T09:50:05.446Z,22.15
2023-05-14T09:51:05.428Z,22.45
2023-05-14T09:52:05.416Z,22.70
2023-05-14T09:53:05.439Z,22.95
2023-05-14T09:54:05.375Z,23.12
2023-05-14T09:55:05.377Z,23.25
2023-05-14T09:56:05.421Z,23.50
2023-05-14T09:57:05.369Z,23.42
2023-05-14T09:58:05.360Z,23.54
2023-05-14T09:59:05.338Z,23.76
2023-05-14T10:00:05.313Z,23.78
2023-05-14T10:01:05.308Z,23.78
2023-05-14T10:02:05.341Z,23.94
2023-05-14T10:03:05.314Z,24.22
2023-05-14T10:04:05.391Z,24.77
2023-05-14T10:05:05.287Z,25.33
2023-05-14T10:06:05.261Z,25.73
2023-05-14T10:07:05.245Z,26.15
2023-05-14T10:08:05.264Z,26.48
2023-05-14T10:09:05.223Z,26.76
2023-05-14T10:10:05.235Z,26.58
2023-05-14T10:11:05.195Z,26.67
2023-05-14T10:12:05.558Z,26.77
2023-05-14T10:13:05.156Z,26.82
2023-05-14T10:14:05.183Z,26.80
2023-05-14T10:15:05.209Z,26.73
2023-05-14T10:16:05.151Z,26.58
2023-05-14T10:17:05.170Z,26.97
2023-05-14T10:18:05.211Z,27.43
2023-05-14T10:19:05.216Z,27.31
2023-05-14T10:20:05.112Z,26.55
2023-05-14T10:21:05.084Z,26.13
2023-05-14T10:22:05.107Z,26.15
2023-05-14T10:23:05.100Z,26.09
2023-05-14T10:24:05.077Z,26.13
2023-05-14T10:25:05.051Z,26.47
2023-05-14T10:26:05.055Z,26.66
2023-05-14T10:27:05.049Z,26.60
2023-05-14T10:28:05.027Z,26.37
2023-05-14T10:29:05.015Z,26.52
2023-05-14T10:30:05.019Z,26.80
2023-05-14T10:31:05.106Z,27.12
2023-05-14T10:32:04.990Z,27.22
2023-05-14T10:33:05.001Z,27.34
2023-05-14T10:34:04.967Z,27.27
2023-05-14T10:35:04.981Z,27.22
2023-05-14T10:36:04.980Z,27.25
2023-05-14T10:37:04.926Z,27.25
2023-05-14T10:38:04.943Z,27.13
2023-05-14T10:39:04.931Z,27.03
2023-05-14T10:40:04.918Z,26.80
2023-05-14T10:41:04.932Z,26.39
2023-05-14T10:42:04.880Z,26.39
2023-05-14T10:43:05.421Z,26.43
2023-05-14T10:44:04.863Z,26.44
2023-05-14T10:45:04.864Z,26.36
2023-05-14T10:46:04.852Z,26.40
2023-05-14T10:47:04.827Z,26.50
2023-05-14T10:48:04.830Z,26.32
2023-05-14T10:49:04.801Z,26.17
2023-05-14T10:50:04.855Z,26.07
2023-05-14T10:51:04.793Z,26.18
2023-05-14T10:52:04.775Z,26.21
2023-05-14T10:53:04.748Z,26.30
2023-05-14T10:54:04.772Z,26.29
2023-05-14T10:55:04.739Z,26.33
2023-05-14T10:56:04.730Z,26.29
2023-05-14T10:57:04.707Z,26.18
2023-05-14T10:58:04.727Z,25.95
2023-05-14T10:59:04.720Z,25.64
2023-05-14T11:00:04.703Z,25.43
2023-05-14T11:01:04.682Z,25.39
2023-05-14T11:02:04.753Z,25.47
2023-05-14T11:03:04.701Z,25.51
2023-05-14T11:04:04.703Z,25.70
2023-05-14T11:05:04.653Z,25.69
2023-05-14T11:06:04.647Z,25.45
2023-05-14T11:07:04.659Z,25.23
2023-05-14T11:08:04.628Z,25.03
2023-05-14T11:09:04.597Z,24.80
2023-05-14T11:10:04.589Z,24.58
2023-05-14T11:11:04.582Z,24.46
2023-05-14T11:12:04.583Z,24.31
2023-05-14T11:13:04.566Z,24.27
2023-05-14T11:14:05.477Z,24.25
2023-05-14T11:15:04.553Z,24.18
2023-05-14T11:16:19.032Z,23.93
2023-05-14T11:17:05.550Z,23.83
2023-05-14T11:18:04.540Z,23.91
2023-05-14T11:19:04.566Z,24.25
2023-05-14T11:20:04.514Z,24.68
2023-05-14T11:21:04.499Z,25.10
2023-05-14T11:22:04.481Z,25.51
2023-05-14T11:23:04.453Z,25.85
2023-05-14T11:24:04.466Z,26.17
2023-05-14T11:25:04.431Z,26.45
2023-05-14T11:26:04.490Z,26.63
2023-05-14T11:27:04.415Z,26.66
2023-05-14T11:28:04.430Z,26.40
2023-05-14T11:29:04.406Z,26.20
2023-05-14T11:30:04.390Z,25.91
2023-05-14T11:31:04.402Z,26.02
2023-05-14T11:32:04.506Z,26.06
2023-05-14T11:33:04.371Z,26.23
2023-05-14T11:34:04.373Z,26.13
2023-05-14T11:35:04.346Z,26.05
2023-05-14T11:36:04.405Z,25.82
2023-05-14T11:37:04.335Z,25.75
2023-05-14T11:38:04.314Z,25.91
2023-05-14T11:39:04.342Z,26.18
2023-05-14T11:40:04.283Z,26.44
2023-05-14T11:41:04.275Z,26.58
2023-05-14T11:42:04.286Z,26.36
2023-05-14T11:43:04.261Z,25.85
2023-05-14T11:44:04.249Z,25.80
2023-05-14T11:45:04.358Z,26.09
2023-05-14T11:46:04.293Z,26.33
2023-05-14T11:47:04.209Z,26.50
2023-05-14T11:48:04.297Z,26.37
2023-05-14T11:49:04.188Z,26.09
2023-05-14T11:50:04.193Z,25.98
2023-05-14T11:51:04.201Z,25.91
2023-05-14T11:52:04.190Z,25.91
2023-05-14T11:53:04.178Z,25.82
2023-05-14T11:54:04.136Z,25.70
2023-05-14T11:55:04.136Z,25.15
2023-05-14T11:56:04.158Z,24.96
2023-05-14T11:57:04.108Z,24.83
2023-05-14T11:58:04.137Z,24.69
2023-05-14T11:59:04.151Z,24.50
2023-05-14T12:00:04.135Z,24.45
2023-05-14T12:01:04.092Z,24.25
2023-05-14T12:02:04.111Z,24.18
2023-05-14T12:03:04.181Z,24.21
2023-05-14T12:04:04.150Z,24.13
2023-05-14T12:05:04.026Z,24.02
2023-05-14T12:06:04.020Z,24.00
2023-05-14T12:07:04.016Z,24.02
2023-05-14T12:08:04.006Z,24.02
2023-05-14T12:09:03.967Z,24.08
2023-05-14T12:10:04.004Z,23.88
2023-05-14T12:11:03.965Z,23.87
2023-05-14T12:12:03.956Z,23.88
2023-05-14T12:13:03.961Z,23.75
2023-05-14T12:14:04.098Z,23.54
2023-05-14T12:15:03.922Z,23.43
2023-05-14T12:16:04.063Z,23.46
2023-05-14T12:17:03.913Z,23.46
2023-05-14T12:18:03.940Z,23.57
2023-05-14T12:19:03.967Z,23.58
2023-05-14T12:20:04.170Z,23.63
2023-05-14T12:21:03.871Z,23.68
2023-05-14T12:22:03.963Z,23.80
2023-05-14T12:23:03.856Z,23.91
2023-05-14T12:24:03.844Z,24.05
2023-05-14T12:25:03.812Z,24.09
2023-05-14T12:26:03.798Z,24.02
2023-05-14T12:27:03.801Z,24.09
2023-05-14T12:28:03.765Z,24.13
2023-05-14T12:29:03.821Z,24.42
2023-05-14T12:30:19.863Z,24.78
2023-05-14T12:31:04.799Z,24.99
2023-05-14T12:32:03.754Z,25.23
2023-05-14T12:33:03.752Z,25.51
2023-05-14T12:34:03.740Z,25.79
2023-05-14T12:35:03.792Z,25.99
2023-05-14T12:37:03.763Z,26.58
2023-05-14T12:38:03.673Z,26.88
2023-05-14T12:39:03.705Z,26.95
2023-05-14T12:40:03.665Z,27.04
2023-05-14T12:41:03.776Z,27.31
2023-05-14T12:42:03.635Z,27.57
2023-05-14T12:43:03.611Z,27.78
2023-05-14T12:44:03.617Z,27.70
2023-05-14T12:45:03.622Z,27.49
2023-05-14T12:46:03.689Z,27.28
2023-05-14T12:47:03.724Z,26.84
2023-05-14T12:48:03.639Z,26.43
2023-05-14T12:49:03.643Z,26.05
2023-05-14T12:50:03.608Z,25.80
2023-05-14T12:51:03.551Z,25.64
2023-05-14T12:52:19.847Z,25.39
2023-05-14T12:53:04.557Z,25.03
2023-05-14T12:54:03.769Z,24.61
2023-05-14T12:55:03.561Z,24.15
2023-05-14T12:56:03.644Z,23.83
2023-05-14T12:57:03.520Z,23.65
2023-05-14T12:58:03.614Z,23.51
2023-05-14T12:59:03.595Z,23.22
2023-05-14T13:00:03.603Z,23.05
2023-05-14T13:01:03.486Z,22.88
2023-05-14T13:02:03.429Z,22.79
2023-05-14T13:03:03.479Z,22.67
2023-05-14T13:04:03.440Z,22.62
2023-05-14T13:05:03.597Z,22.55
2023-05-14T13:06:03.376Z,22.36
2023-05-14T13:07:03.397Z,22.37